Time;durP1;ratioP1;P1;durP2;ratioP2;P2;SDS_P1;SDS_P2;PMS_P1;PMS_P2;Temp;Humidity;BMP_temperature;BMP_pressure;BME280_temperature;BME280_humidity;BME280_pressure;Samples;Min_cycle;Max_cycle;Signal;HPM_P1;HPM_P2
2022/05/11 00:00:45;;;;;;;5.38;4.85;;;16.00;99.90;;;15.84;92.14;97320.66;5011527;28;20033;-39
2022/05/11 00:03:11;;;;;;;5.30;4.80;;;16.00;99.90;;;15.84;91.64;97312.69;4997888;28;20052;-39
2022/05/11 00:05:38;;;;;;;9.27;5.28;;;16.00;99.90;;;15.84;91.34;97317.13;5002971;28;20477;-39
2022/05/11 00:08:05;;;;;;;11.07;5.15;;;16.00;99.90;;;15.76;91.12;97306.94;5009331;28;20071;-39
2022/05/11 00:10:33;;;;;;;6.93;5.65;;;16.00;99.90;;;15.77;91.35;97315.78;5007956;28;20025;-39
2022/05/11 00:12:59;;;;;;;6.22;5.00;;;15.90;99.90;;;15.69;91.10;97313.56;5005946;28;20040;-39
2022/05/11 00:15:25;;;;;;;5.03;4.43;;;15.90;99.90;;;15.71;91.00;97313.47;5008656;28;20025;-39
2022/05/11 00:17:51;;;;;;;6.93;5.05;;;15.90;99.90;;;15.68;90.93;97310.97;5007972;28;20775;-39
2022/05/11 00:20:19;;;;;;;7.15;5.00;;;15.90;99.90;;;15.64;90.87;97313.81;5005893;28;20128;-39
2022/05/11 00:22:45;;;;;;;5.28;4.70;;;15.80;99.90;;;15.60;90.95;97311.44;5006446;28;20037;-39
2022/05/11 00:25:14;;;;;;;8.85;5.85;;;15.80;99.90;;;15.53;91.60;97302.13;4992319;28;20297;-39
2022/05/11 00:27:40;;;;;;;5.65;5.05;;;15.70;99.90;;;15.50;91.84;97304.94;5005014;28;20076;-39
2022/05/11 00:30:08;;;;;;;6.15;5.18;;;15.70;99.90;;;15.45;92.38;97307.84;5008137;28;20541;-39
2022/05/11 00:32:34;;;;;;;6.90;5.18;;;15.70;99.90;;;15.45;91.78;97302.53;4996625;28;20042;-39
2022/05/11 00:35:00;;;;;;;5.20;4.70;;;15.60;99.90;;;15.46;91.25;97297.13;5008211;28;20164;-39
2022/05/11 00:37:28;;;;;;;8.25;4.93;;;15.70;99.90;;;15.43;91.55;97302.66;5005971;28;20036;-39
2022/05/11 00:39:54;;;;;;;5.88;4.80;;;15.60;99.90;;;15.40;91.24;97297.50;4999941;28;20026;-39
2022/05/11 00:42:19;;;;;;;5.90;4.88;;;15.60;99.90;;;15.41;90.78;97301.84;5010101;28;20402;-39
2022/05/11 00:44:45;;;;;;;5.30;4.80;;;15.60;99.90;;;15.38;90.22;97295.88;5011999;28;20144;-39
2022/05/11 00:47:32;;;;;;;9.18;4.93;;;15.60;99.90;;;15.45;89.37;97300.75;5010195;28;20040;-39
2022/05/11 00:50:07;;;;;;;6.85;5.03;;;15.70;99.90;;;15.60;88.59;97300.81;4989359;28;20080;-39
2022/05/11 00:53:20;;;;;;;5.38;4.88;;;15.70;99.90;;;15.61;88.11;97286.56;5002331;28;20167;-39
2022/05/11 00:55:56;;;;;;;6.20;4.88;;;15.80;99.90;;;15.62;87.73;97297.09;5001915;28;20099;-39
2022/05/11 00:58:46;;;;;;;5.85;4.85;;;15.80;99.90;;;15.63;87.79;97284.66;4986451;28;20038;-40
2022/05/11 01:01:12;;;;;;;7.80;4.38;;;15.90;99.90;;;15.63;87.51;97288.19;4993275;28;20067;-39
2022/05/11 01:03:55;;;;;;;9.48;5.18;;;15.90;99.90;;;15.63;88.01;97285.53;5006313;28;20489;-39
2022/05/11 01:06:23;;;;;;;5.72;4.50;;;15.80;99.90;;;15.63;88.04;97282.00;5009511;28;20033;-40
2022/05/11 01:08:49;;;;;;;4.57;4.15;;;15.80;99.90;;;15.60;88.33;97284.84;5006556;28;20759;-40
2022/05/11 01:11:15;;;;;;;7.10;4.68;;;15.80;99.90;;;15.58;88.31;97284.94;5002553;28;20109;-40
2022/05/11 01:13:43;;;;;;;5.18;4.43;;;15.70;99.90;;;15.55;88.51;97284.28;5012450;28;20033;-39
2022/05/11 01:16:09;;;;;;;5.57;4.43;;;15.80;99.90;;;15.46;88.83;97277.69;5002590;28;20025;-40
2022/05/11 01:18:38;;;;;;;4.55;3.95;;;15.70;99.90;;;15.42;89.04;97282.31;4989667;28;20029;-40
2022/05/11 01:21:07;;;;;;;4.75;3.92;;;15.60;99.90;;;15.41;89.72;97282.41;5012753;28;20643;-39
2022/05/11 01:24:00;;;;;;;6.60;4.22;;;15.60;99.90;;;15.37;90.80;97284.38;5016028;28;20042;-39
2022/05/11 01:26:26;;;;;;;5.53;4.13;;;15.60;99.90;;;15.34;91.18;97283.72;5002450;28;20041;-40
2022/05/11 01:28:55;;;;;;;6.78;4.47;;;15.50;99.90;;;15.32;90.93;97280.28;5004739;28;20304;-40
2022/05/11 01:31:22;;;;;;;5.38;4.13;;;15.50;99.90;;;15.24;91.05;97272.78;5008079;28;20033;-40
2022/05/11 01:33:51;;;;;;;5.43;4.35;;;15.50;99.90;;;15.28;91.25;97291.09;5001006;28;20037;-39
2022/05/11 01:36:35;;;;;;;5.30;4.43;;;15.50;99.90;;;15.06;92.07;97250.78;5008577;28;20052;-39
2022/05/11 01:39:05;;;;;;;4.65;4.00;;;15.40;99.90;;;15.20;92.15;97282.72;5017247;28;20033;-39
2022/05/11 01:41:33;;;;;;;4.90;4.40;;;15.40;99.90;;;15.21;92.43;97280.91;5021022;28;20025;-39
2022/05/11 01:44:01;;;;;;;6.05;4.10;;;15.40;99.90;;;15.19;92.63;97282.81;5017091;28;20037;-40
2022/05/11 01:46:27;;;;;;;5.22;3.97;;;15.40;99.90;;;15.18;92.97;97276.66;5015014;28;20895;-39
2022/05/11 01:48:53;;;;;;;6.25;4.35;;;15.40;99.90;;;15.18;93.12;97274.00;5015008;28;20078;-40
2022/05/11 01:51:20;;;;;;;6.30;4.20;;;15.30;99.90;;;15.16;93.21;97280.31;5014374;28;20033;-39
2022/05/11 01:53:47;;;;;;;5.97;4.22;;;15.30;99.90;;;15.18;93.14;97278.41;5014929;28;20065;-39
2022/05/11 01:56:15;;;;;;;5.15;4.13;;;15.30;99.90;;;15.16;92.91;97269.69;5012129;28;20039;-40
2022/05/11 01:58:41;;;;;;;7.10;4.22;;;15.30;99.90;;;15.19;93.22;97275.69;5012849;28;20033;-39
2022/05/11 02:01:07;;;;;;;5.10;4.18;;;15.40;99.90;;;15.16;93.32;97275.84;5008751;28;20334;-39
2022/05/11 02:03:33;;;;;;;5.47;4.30;;;15.40;99.90;;;15.13;93.48;97267.19;5013071;28;20041;-40
2022/05/11 02:08:45;;;;;;;5.50;4.65;;;15.30;99.90;;;15.07;93.96;97263.09;5011262;28;20033;-39
2022/05/11 02:11:13;;;;;;;5.65;4.30;;;15.30;99.90;;;15.03;94.30;97270.38;5013284;28;20190;-40
2022/05/11 02:13:39;;;;;;;4.78;4.22;;;15.20;99.90;;;15.00;94.54;97267.94;5014255;28;20488;-39
2022/05/11 02:16:06;;;;;;;4.95;4.35;;;15.20;99.90;;;14.97;94.72;97270.75;5007748;28;20040;-40
2022/05/11 02:18:32;;;;;;;6.70;4.57;;;15.20;99.90;;;14.97;94.91;97268.09;5012645;28;20030;-40
2022/05/11 02:20:59;;;;;;;5.47;4.47;;;15.10;99.90;;;14.99;94.89;97270.66;5012253;28;20590;-39
2022/05/11 02:23:26;;;;;;;7.85;4.88;;;15.20;99.90;;;14.97;95.25;97270.75;5015712;28;20025;-39
2022/05/11 02:25:52;;;;;;;4.80;4.05;;;15.20;99.90;;;14.96;95.57;97269.03;5012644;28;20035;-39
2022/05/11 02:28:21;;;;;;;4.85;3.90;;;15.10;99.90;;;14.95;95.57;97269.97;5015574;28;20025;-39
2022/05/11 02:30:49;;;;;;;6.88;4.45;;;15.10;99.90;;;14.96;95.72;97265.53;5012442;28;20501;-40
2022/05/11 02:33:15;;;;;;;5.13;4.50;;;15.20;99.90;;;14.96;96.05;97266.38;5017337;28;20045;-39
2022/05/11 02:35:42;;;;;;;8.15;4.25;;;15.20;99.90;;;14.96;95.81;97266.38;5013395;28;20460;-40
2022/05/11 02:38:22;;;;;;;4.32;3.80;;;15.20;99.90;;;14.95;96.27;97264.69;5019875;28;20045;-40
2022/05/11 02:40:48;;;;;;;5.40;4.50;;;15.10;99.90;;;14.92;96.06;97262.19;5014826;28;20152;-39
2022/05/11 02:43:15;;;;;;;7.18;4.93;;;15.10;99.90;;;14.94;96.22;97262.09;5009642;28;20516;-40
2022/05/11 02:45:42;;;;;;;6.07;5.20;;;15.10;99.90;;;14.96;96.07;97266.38;5010196;28;20279;-40
2022/05/11 02:48:15;;;;;;;4.53;4.13;;;15.10;99.90;;;14.96;96.25;97261.06;5015584;28;20053;-39
2022/05/11 02:50:48;;;;;;;4.78;4.25;;;15.10;99.90;;;14.95;96.17;97261.13;5015427;28;20048;-39
2022/05/11 02:53:15;;;;;;;5.93;4.93;;;15.10;99.90;;;14.97;96.38;97256.63;5012014;28;20116;-39
2022/05/11 02:55:47;;;;;;;5.28;4.78;;;15.20;99.90;;;14.93;96.33;97253.28;5007853;28;20041;-39
2022/05/11 02:58:16;;;;;;;4.75;4.18;;;15.20;99.90;;;14.97;96.39;97260.13;5022853;28;20098;-40
2022/05/11 03:00:45;;;;;;;6.00;4.55;;;15.20;99.90;;;14.96;96.46;97258.41;5016479;28;20046;-40
2022/05/11 03:03:13;;;;;;;4.70;4.28;;;15.20;99.90;;;14.94;96.76;97268.25;5009108;28;20327;-40
2022/05/11 03:05:40;;;;;;;5.43;4.82;;;15.20;99.90;;;14.94;96.61;97264.75;5008617;28;20122;-40
2022/05/11 03:08:06;;;;;;;5.60;4.50;;;15.20;99.90;;;14.92;96.63;97259.53;5013256;28;20029;-40
2022/05/11 03:10:32;;;;;;;5.10;4.60;;;15.20;99.90;;;14.95;97.00;97262.03;5006578;28;20034;-39
2022/05/11 03:12:58;;;;;;;6.05;4.80;;;15.20;99.90;;;14.98;96.40;97256.50;5000454;28;20032;-40
2022/05/11 03:15:24;;;;;;;6.40;4.80;;;15.20;99.90;;;15.03;96.46;97264.22;5010814;28;20509;-39
2022/05/11 03:17:50;;;;;;;6.80;4.90;;;15.20;99.90;;;15.00;96.96;97264.41;5006914;28;20041;-39
2022/05/11 03:20:18;;;;;;;7.32;5.13;;;15.20;99.90;;;14.94;96.74;97249.66;5011012;28;20733;-39
2022/05/11 03:22:44;;;;;;;6.43;5.05;;;15.20;99.90;;;14.99;96.99;97255.59;5007209;28;20450;-39
2022/05/11 03:25:10;;;;;;;5.80;5.20;;;15.20;99.90;;;14.99;96.90;97262.69;5004098;28;20052;-39
2022/05/11 03:27:37;;;;;;;6.25;5.18;;;15.30;99.90;;;14.96;97.23;97258.41;5005121;28;20551;-40
2022/05/11 03:30:05;;;;;;;6.22;4.45;;;15.20;99.90;;;14.93;97.12;97261.25;5001051;28;20029;-39
2022/05/11 03:35:15;;;;;;;7.40;4.90;;;15.10;99.90;;;14.94;97.28;97251.47;5011745;28;20551;-40
2022/05/11 03:37:42;;;;;;;5.13;4.63;;;15.10;99.90;;;14.89;97.44;97257.03;5005678;28;20046;-39
2022/05/11 03:40:09;;;;;;;5.35;4.70;;;15.10;99.90;;;14.84;97.54;97254.66;5006107;28;20061;-39
2022/05/11 03:42:37;;;;;;;5.65;5.00;;;15.10;99.90;;;14.75;98.10;97239.25;4996361;28;20037;-39
2022/05/11 03:45:16;;;;;;;6.97;4.93;;;15.00;99.90;;;14.80;98.14;97246.94;5003885;28;20128;-39
2022/05/11 03:47:43;;;;;;;5.82;4.45;;;15.00;99.90;;;14.75;98.28;97249.88;4998840;28;20036;-39
2022/05/11 03:50:09;;;;;;;7.95;5.20;;;15.00;99.90;;;14.75;98.17;97259.63;5032172;23;20056;-58
2022/05/11 03:52:36;;;;;;;6.03;4.63;;;15.00;99.90;;;14.77;98.10;97252.41;5021193;28;20493;-58
2022/05/11 03:55:04;;;;;;;5.93;4.43;;;15.00;99.90;;;14.77;98.24;97247.09;5026835;28;20041;-58
2022/05/11 03:57:32;;;;;;;5.15;4.65;;;15.00;99.90;;;14.78;97.86;97244.38;5013538;28;20060;-58
2022/05/11 03:59:57;;;;;;;5.93;4.63;;;15.00;99.90;;;14.79;97.58;97250.56;5041696;28;20071;-58
2022/05/11 04:02:23;;;;;;;5.93;4.90;;;15.00;99.90;;;14.80;97.61;97250.44;5054792;28;20501;-58
2022/05/11 04:04:49;;;;;;;5.82;4.68;;;15.00;99.90;;;14.81;97.54;97251.31;5054114;28;20037;-58
2022/05/11 04:07:14;;;;;;;5.55;4.88;;;15.00;99.90;;;14.81;97.53;97246.00;5055331;28;20039;-58
2022/05/11 04:09:40;;;;;;;6.07;4.80;;;15.00;99.90;;;14.78;97.71;97241.72;5058494;28;20032;-58
2022/05/11 04:12:07;;;;;;;4.78;4.28;;;15.00;99.90;;;14.80;97.56;97249.59;5057613;28;20399;-58
2022/05/11 04:14:33;;;;;;;6.78;4.85;;;15.00;99.90;;;14.79;97.55;97255.88;5057108;28;20498;-58
2022/05/11 04:16:59;;;;;;;5.93;4.70;;;15.00;99.90;;;14.85;97.22;97250.19;5045702;28;20044;-58
2022/05/11 04:19:29;;;;;;;4.53;3.95;;;15.00;99.90;;;14.86;97.08;97250.13;5055157;28;20816;-58
2022/05/11 04:21:55;;;;;;;4.90;4.40;;;15.10;99.90;;;14.86;97.43;97243.97;5053151;28;20041;-58
2022/05/11 04:24:22;;;;;;;4.70;4.15;;;15.10;99.90;;;14.87;97.22;97250.97;5052330;28;20032;-58
2022/05/11 04:26:49;;;;;;;5.82;4.43;;;15.00;99.90;;;14.88;97.04;97250.88;5055298;28;20127;-58
2022/05/11 04:29:15;;;;;;;5.45;4.00;;;15.10;99.90;;;14.91;96.98;97249.84;5052718;28;20032;-58
2022/05/11 04:31:41;;;;;;;5.43;4.28;;;15.10;99.90;;;14.98;95.66;97253.00;5043796;28;20037;-58
2022/05/11 04:34:07;;;;;;;6.70;4.50;;;15.20;99.90;;;15.04;95.28;97248.22;5050278;28;20036;-58
2022/05/11 04:36:33;;;;;;;6.40;4.63;;;15.20;99.90;;;15.21;93.25;97254.34;5043593;28;20446;-58
2022/05/11 04:38:58;;;;;;;5.95;4.25;;;15.30;99.90;;;15.29;91.93;97257.44;5055835;28;20082;-58
2022/05/11 04:41:24;;;;;;;5.60;4.20;;;15.40;99.90;;;15.31;92.24;97258.19;5057488;28;20036;-58
2022/05/11 04:43:50;;;;;;;5.63;4.50;;;15.50;99.90;;;15.31;92.21;97247.56;5058833;28;20530;-58
2022/05/11 04:46:15;;;;;;;4.70;4.18;;;15.50;99.90;;;15.31;92.40;97257.31;5055389;28;20502;-58
2022/05/11 04:48:44;;;;;;;4.72;3.97;;;15.50;99.90;;;15.33;92.64;97256.28;5051735;28;20504;-58
2022/05/11 04:51:11;;;;;;;4.40;4.00;;;15.50;99.90;;;15.34;92.23;97249.16;5052216;28;20040;-57
2022/05/11 04:53:38;;;;;;;4.70;4.07;;;15.50;99.90;;;15.38;91.75;97259.53;5056424;28;20488;-58
2022/05/11 04:56:04;;;;;;;5.35;4.50;;;15.60;99.90;;;15.40;91.40;97252.34;5056399;28;20127;-58
2022/05/11 04:58:30;;;;;;;4.70;4.22;;;15.60;99.90;;;15.40;91.44;97256.81;5050379;28;20909;-59
2022/05/11 05:00:56;;;;;;;4.30;3.90;;;15.60;99.90;;;15.45;91.49;97257.34;5056364;28;20027;-58
2022/05/11 05:03:22;;;;;;;5.00;3.95;;;15.60;99.90;;;15.47;92.13;97255.50;5050533;28;20048;-58
2022/05/11 05:05:48;;;;;;;4.50;3.78;;;15.60;99.90;;;15.50;90.98;97260.59;5055257;28;20021;-58
2022/05/11 05:08:14;;;;;;;5.00;3.90;;;15.70;99.90;;;15.56;89.32;97257.59;5057699;28;20082;-58
2022/05/11 05:10:41;;;;;;;4.75;3.85;;;15.70;99.90;;;15.57;90.06;97256.63;5056847;28;20527;-58
2022/05/11 05:13:10;;;;;;;4.63;3.42;;;15.70;99.90;;;15.59;89.89;97257.41;5048385;28;20439;-58
2022/05/11 05:15:38;;;;;;;5.65;4.32;;;15.80;99.90;;;15.65;90.52;97258.88;5043320;28;20044;-58
2022/05/11 05:18:06;;;;;;;4.20;3.70;;;15.80;99.90;;;15.64;89.76;97257.13;5020041;28;20021;-58
2022/05/11 05:20:33;;;;;;;4.35;3.95;;;15.90;99.90;;;15.83;88.55;97271.06;5050124;28;20120;-58
2022/05/11 05:22:59;;;;;;;4.15;3.67;;;16.00;99.90;;;15.93;87.97;97271.34;5052902;28;20039;-58
2022/05/11 05:25:25;;;;;;;4.07;3.50;;;16.10;99.90;;;16.02;86.66;97272.59;5033570;28;20024;-58
2022/05/11 05:27:53;;;;;;;4.07;3.53;;;16.20;99.90;;;16.13;85.62;97274.63;5054574;28;20551;-58
2022/05/11 05:33:04;;;;;;;6.85;3.53;;;16.40;99.90;;;16.59;83.99;97275.25;5052609;28;20078;-58
2022/05/11 05:35:30;;;;;;;6.32;3.58;;;16.60;99.90;;;16.84;82.56;97272.91;5054097;28;20032;-58
2022/05/11 05:37:56;;;;;;;4.18;3.60;;;16.80;99.90;;;16.92;81.63;97276.78;5055524;28;20028;-58
2022/05/11 05:40:22;;;;;;;4.80;4.00;;;17.00;99.90;;;16.97;81.12;97276.47;5053436;28;20350;-58
2022/05/11 05:42:48;;;;;;;4.53;3.90;;;17.10;99.90;;;16.99;81.27;97279.88;5056832;28;20036;-58
2022/05/11 05:45:14;;;;;;;4.35;3.55;;;17.10;99.90;;;17.02;81.37;97277.03;5054706;28;20158;-58
2022/05/11 05:47:40;;;;;;;5.70;3.95;;;17.20;99.90;;;17.07;80.66;97282.06;5056585;28;20491;-58
2022/05/11 05:50:08;;;;;;;6.13;3.70;;;17.30;99.90;;;17.11;79.47;97270.25;5051935;28;20035;-58
2022/05/11 05:52:34;;;;;;;4.10;3.70;;;17.40;99.90;;;17.17;80.80;97272.50;5052976;28;20054;-58
2022/05/11 05:54:59;;;;;;;5.32;3.95;;;17.40;99.90;;;17.25;80.24;97274.69;5051672;28;20041;-58
2022/05/11 05:57:27;;;;;;;4.15;3.55;;;17.50;99.90;;;17.35;79.76;97271.31;5055742;28;20036;-58
2022/05/11 05:59:53;;;;;;;5.63;3.70;;;17.60;99.90;;;17.47;77.66;97268.75;5055542;28;20033;-57
2022/05/11 06:02:18;;;;;;;7.13;3.85;;;17.70;99.90;;;17.64;76.85;97275.63;5050635;28;20139;-58
2022/05/11 06:04:49;;;;;;;5.45;3.72;;;17.80;99.90;;;17.84;76.42;97280.47;5043031;28;20044;-58
2022/05/11 06:07:17;;;;;;;4.45;3.70;;;18.00;99.90;;;18.02;73.68;97273.03;5053065;28;20067;-58
2022/05/11 06:09:43;;;;;;;3.67;3.22;;;18.20;99.90;;;18.21;74.03;97279.75;5057715;28;20409;-58
2022/05/11 06:12:12;;;;;;;6.68;3.40;;;18.30;99.90;;;18.40;73.23;97276.66;5060577;28;20512;-58
2022/05/11 06:14:39;;;;;;;4.32;3.72;;;18.50;99.90;;;18.51;71.74;97280.28;5059696;28;22471;-58
2022/05/11 06:17:25;;;;;;;7.30;3.85;;;18.70;99.90;;;18.71;72.30;97286.00;5054895;28;20107;-58
2022/05/11 06:19:52;;;;;;;4.18;3.78;;;18.80;99.90;;;18.86;70.38;97279.59;5060207;28;20028;-58
2022/05/11 06:22:18;;;;;;;4.28;3.70;;;19.00;99.90;;;19.00;71.55;97288.41;5060410;28;20028;-58
2022/05/11 06:24:43;;;;;;;5.13;4.03;;;19.10;99.90;;;19.16;69.86;97280.97;5061020;28;20079;-58
2022/05/11 06:27:19;;;;;;;4.03;3.60;;;19.30;99.90;;;19.32;68.02;97285.22;5056670;28;20566;-58
2022/05/11 06:29:58;;;;;;;4.28;3.85;;;19.40;99.90;;;19.41;67.78;97273.81;5053285;28;20111;-58
2022/05/11 06:32:24;;;;;;;5.65;3.65;;;19.60;99.90;;;19.48;66.34;97280.41;5050734;28;20287;-58
2022/05/11 06:34:52;;;;;;;4.07;3.60;;;19.70;99.90;;;19.58;66.99;97285.94;5057440;28;20032;-58
2022/05/11 06:37:19;;;;;;;4.10;3.70;;;19.80;99.90;;;19.74;65.58;97275.81;5059731;28;20295;-58
2022/05/11 06:39:45;;;;;;;4.07;3.67;;;19.90;99.90;;;19.88;64.30;97277.41;5057424;28;20040;-58
2022/05/11 06:42:13;;;;;;;5.20;3.63;;;20.00;99.90;;;20.03;64.18;97276.25;5040383;28;20051;-58
2022/05/11 06:44:39;;;;;;;3.40;3.10;;;20.10;99.90;;;20.25;64.71;97274.56;5055526;28;20039;-58
2022/05/11 06:47:06;;;;;;;4.43;3.30;;;20.30;99.90;;;20.40;62.93;97277.88;5051610;28;20021;-58
2022/05/11 06:49:32;;;;;;;5.10;3.45;;;20.50;99.90;;;20.48;62.13;97272.75;5058481;28;20032;-58
2022/05/11 06:51:58;;;;;;;5.55;3.30;;;20.60;99.90;;;20.50;61.56;97278.84;5062003;28;20701;-58
2022/05/11 06:59:55;;;;;;;3.95;3.55;;;20.70;99.90;;;20.78;62.61;97269.50;5052217;28;20495;-58
2022/05/11 07:02:21;;;;;;;5.53;3.20;;;20.80;99.90;;;20.88;60.07;97268.75;5054200;28;20131;-58
2022/05/11 07:04:48;;;;;;;3.38;2.80;;;20.90;99.90;;;20.96;59.29;97274.31;5058321;28;20508;-56
2022/05/11 07:07:15;;;;;;;3.78;3.28;;;21.00;99.90;;;21.02;60.47;97255.06;5046351;28;20115;-56
2022/05/11 07:09:41;;;;;;;4.45;3.63;;;21.10;99.90;;;21.12;57.29;97268.56;5055613;28;20025;-56
2022/05/11 07:12:17;;;;;;;6.82;3.38;;;21.20;99.90;;;21.20;58.35;97265.28;5054875;28;20393;-56
2022/05/11 07:14:51;;;;;;;4.68;3.50;;;21.30;99.90;;;21.31;57.17;97267.91;5057037;28;20480;-56
2022/05/11 07:17:38;;;;;;;4.82;3.17;;;21.30;99.90;;;21.38;56.04;97268.28;5048428;28;20037;-56
2022/05/11 07:20:08;;;;;;;4.03;3.15;;;21.40;99.90;;;21.48;56.74;97264.72;5037530;28;20535;-56
2022/05/11 07:22:34;;;;;;;5.40;3.25;;;21.60;99.90;;;21.56;54.65;97263.22;5044485;28;20060;-56
2022/05/11 07:25:00;;;;;;;3.63;3.10;;;21.60;99.20;;;21.53;54.60;97238.38;5042488;28;20106;-57
2022/05/11 07:27:26;;;;;;;5.53;3.00;;;21.70;98.80;;;21.76;54.07;97261.53;5047149;28;20437;-57
2022/05/11 07:29:53;;;;;;;4.28;3.20;;;21.80;98.60;;;21.83;54.01;97265.41;5052330;28;20029;-57
2022/05/11 07:32:21;;;;;;;4.25;3.05;;;21.90;98.30;;;21.88;52.17;97264.03;5053275;28;20172;-56
2022/05/11 07:34:47;;;;;;;4.10;3.22;;;22.00;97.60;;;21.95;52.09;97267.06;5052725;28;20035;-57
2022/05/11 07:37:14;;;;;;;5.20;3.03;;;22.00;97.40;;;22.03;52.75;97263.72;5050992;28;20308;-56
2022/05/11 07:39:39;;;;;;;3.80;3.00;;;22.10;97.10;;;22.14;52.95;97271.69;5051863;28;20102;-57
2022/05/11 07:42:06;;;;;;;3.47;2.58;;;22.20;97.20;;;22.30;51.12;97257.81;5051068;28;20262;-57
2022/05/11 07:44:32;;;;;;;4.82;2.90;;;22.30;96.40;;;22.37;49.50;97256.28;5050826;28;20024;-57
2022/05/11 07:46:57;;;;;;;3.83;2.95;;;22.40;95.60;;;22.39;49.06;97261.53;5050699;28;20060;-57
2022/05/11 07:49:23;;;;;;;3.45;2.60;;;22.50;94.80;;;22.52;48.83;97267.53;5052610;28;20643;-57
2022/05/11 07:51:52;;;;;;;3.47;2.80;;;22.60;94.90;;;22.52;48.35;97270.22;5052240;28;20078;-57
2022/05/11 07:54:18;;;;;;;4.55;2.80;;;22.60;93.90;;;22.53;48.76;97263.03;5048029;28;20502;-57
2022/05/11 08:02:13;;;;;;;3.78;3.03;;;22.70;93.40;;;22.65;48.42;97259.25;5053259;28;20121;-57
2022/05/11 08:04:39;;;;;;;4.82;2.95;;;22.70;93.60;;;22.75;48.48;97260.13;5058369;28;20480;-57
2022/05/11 08:07:05;;;;;;;6.03;2.90;;;22.80;93.90;;;22.79;47.01;97258.00;5055154;28;20024;-57
2022/05/11 08:09:32;;;;;;;5.85;2.78;;;22.90;93.10;;;22.82;49.17;97249.69;5057065;28;20104;-57
2022/05/11 08:11:57;;;;;;;4.05;2.78;;;22.90;92.80;;;22.92;47.71;97253.25;5045806;28;20517;-57
2022/05/11 08:14:23;;;;;;;3.63;2.70;;;22.90;92.70;;;23.04;47.98;97254.88;5054564;28;20040;-57
2022/05/11 08:16:52;;;;;;;5.15;2.70;;;23.00;92.90;;;23.08;47.28;97250.06;5048970;28;20089;-57
2022/05/11 08:19:26;;;;;;;4.03;2.67;;;23.10;92.40;;;23.15;46.70;97250.34;5052227;28;20101;-57
2022/05/11 08:21:54;;;;;;;3.35;2.80;;;23.20;92.40;;;23.20;46.48;97251.66;5054644;28;20036;-57
2022/05/11 08:24:21;;;;;;;7.88;2.78;;;23.30;91.70;;;23.25;46.39;97248.53;5057532;28;20376;-57
2022/05/11 08:26:50;;;;;;;4.88;3.28;;;23.30;91.60;;;23.37;46.82;97249.25;5055256;28;20033;-57
2022/05/11 08:33:19;;;;;;;3.30;2.88;;;23.40;91.60;;;23.46;47.48;97239.50;5056500;28;20060;-57
2022/05/11 08:34:51;;;;;;;3.53;2.90;;;23.60;90.70;;;23.51;44.79;97234.50;5055278;28;20537;-57
2022/05/11 08:37:17;;;;;;;6.13;2.85;;;23.60;90.50;;;23.57;45.89;97242.03;5046904;28;20326;-56
2022/05/11 08:39:44;;;;;;;3.13;2.83;;;23.60;90.40;;;23.61;46.48;97240.75;5053746;28;20038;-56
2022/05/11 08:42:11;;;;;;;3.70;2.90;;;23.60;91.10;;;23.66;47.04;97243.88;5055986;28;20032;-56
2022/05/11 08:44:43;;;;;;;6.95;2.70;;;23.70;90.50;;;23.75;45.42;97237.63;5048489;28;20399;-56
2022/05/11 08:47:46;;;;;;;3.83;2.40;;;23.80;90.30;;;23.74;43.98;97246.72;5050002;28;20024;-57
2022/05/11 08:50:16;;;;;;;;;;;23.80;87.30;;;23.74;43.94;97246.72;5055397;28;20070;-57
2022/05/11 08:52:50;;;;;;;3.30;2.97;;;23.80;87.60;;;23.85;45.11;97237.66;5053960;28;20320;-56
2022/05/11 08:55:40;;;;;;;4.53;3.03;;;23.90;89.40;;;24.02;44.18;97233.38;5052546;28;20028;-57
2022/05/11 08:58:33;;;;;;;5.45;2.97;;;24.00;88.40;;;24.10;43.52;97241.59;5055990;28;20090;-57
2022/05/11 09:00:59;;;;;;;3.42;2.85;;;24.10;86.60;;;24.10;43.35;97225.41;5052726;28;20036;-57
2022/05/11 09:03:39;;;;;;;3.05;2.75;;;24.20;85.60;;;24.21;44.03;97227.09;5050852;28;20522;-57
2022/05/11 09:06:28;;;;;;;4.22;3.40;;;24.20;86.60;;;24.21;44.02;97227.09;5028127;28;20033;-57
2022/05/11 09:08:57;;;;;;;3.88;3.40;;;24.30;86.80;;;24.30;44.05;97217.25;5031417;28;20037;-57
2022/05/11 09:11:48;;;;;;;3.45;2.83;;;24.30;86.80;;;24.46;44.15;97230.09;5054059;28;20139;-56
2022/05/11 09:14:19;;;;;;;4.63;3.15;;;24.40;86.70;;;24.54;42.96;97228.41;5039674;28;20084;-56
2022/05/11 09:16:50;;;;;;;4.07;2.88;;;24.50;85.90;;;24.50;43.19;97228.84;5054521;28;20107;-56
2022/05/11 09:19:32;;;;;;;4.87;3.00;;;24.60;84.10;;;24.53;43.36;97220.47;5052603;28;20055;-57
2022/05/11 09:22:14;;;;;;;3.58;3.28;;;24.50;85.70;;;24.51;43.98;97215.19;5053167;28;20370;-56
2022/05/11 09:24:57;;;;;;;5.72;3.92;;;24.60;82.90;;;24.54;43.23;97222.16;5053909;28;20032;-57
2022/05/11 09:27:30;;;;;;;3.95;3.08;;;24.60;83.70;;;24.51;41.63;97220.56;5033081;28;20596;-58
2022/05/11 09:30:16;;;;;;;3.78;3.17;;;24.60;81.20;;;24.57;42.37;97222.72;5027420;28;20539;-57
2022/05/11 09:32:44;;;;;;;3.45;2.85;;;24.70;83.10;;;24.59;42.85;97211.78;5050243;28;20032;-57
2022/05/11 09:35:19;;;;;;;6.80;3.25;;;24.60;82.60;;;24.65;45.18;97213.03;5054339;28;20107;-57
2022/05/11 09:38:12;;;;;;;3.47;3.05;;;24.70;85.10;;;24.82;43.39;97214.06;5047853;28;20279;-57
2022/05/11 09:41:16;;;;;;;3.50;3.10;;;24.80;84.20;;;24.85;42.75;97206.53;5035591;28;20054;-55
2022/05/11 09:43:46;;;;;;;4.75;3.53;;;24.90;82.80;;;24.86;42.99;97202.00;5050371;28;20451;-54
2022/05/11 09:46:27;;;;;;;4.50;3.30;;;24.90;82.30;;;25.05;43.64;97199.19;5051621;28;20063;-55
2022/05/11 09:49:04;;;;;;;8.93;3.80;;;25.00;83.70;;;25.10;43.64;97204.09;5049272;28;20040;-55
2022/05/11 09:51:45;;;;;;;7.78;3.90;;;25.20;83.70;;;25.15;43.48;97199.09;5053998;28;20178;-56
2022/05/11 09:54:38;;;;;;;4.03;3.20;;;25.20;83.70;;;25.12;42.88;97202.09;5048020;28;20041;-54
2022/05/11 09:57:11;;;;;;;5.88;4.15;;;25.20;82.50;;;25.15;42.49;97188.31;5055112;28;20049;-54
2022/05/11 09:59:40;;;;;;;6.90;3.85;;;25.20;81.30;;;25.30;44.56;97184.13;5055864;28;20051;-54
2022/05/11 10:02:35;;;;;;;7.07;3.95;;;25.40;83.30;;;25.55;43.13;97184.31;5050919;28;20091;-54
2022/05/11 10:05:11;;;;;;;7.38;4.32;;;25.50;83.20;;;25.79;43.31;97183.66;5021468;28;20082;-56
2022/05/11 10:07:49;;;;;;;7.72;4.03;;;25.80;83.70;;;26.01;41.77;97184.19;5028861;28;20879;-54
2022/05/11 10:10:27;;;;;;;4.90;3.83;;;26.10;80.70;;;26.22;41.56;97184.66;5033925;28;20028;-56
2022/05/11 10:13:18;;;;;;;5.70;3.90;;;26.30;80.40;;;26.36;41.76;97168.81;5051027;28;20036;-54
2022/05/11 10:21:53;;;;;;;4.18;3.60;;;26.50;77.80;;;26.62;41.12;97171.53;5034618;28;20127;-42
2022/05/11 10:24:34;;;;;;;4.88;3.97;;;26.60;77.40;;;26.66;40.48;97159.34;5019980;28;20107;-41
2022/05/11 10:27:30;;;;;;;5.07;3.78;;;26.80;76.50;;;26.80;39.62;97166.00;5028554;28;20392;-41
2022/05/11 10:30:28;;;;;;;8.02;3.78;;;26.90;75.70;;;26.85;39.39;97156.38;5016287;28;20341;-41
2022/05/11 10:33:46;;;;;;;4.10;3.58;;;26.90;75.50;;;26.83;38.79;97147.59;5009057;28;20034;-41
2022/05/11 10:36:25;;;;;;;4.25;3.40;;;26.90;73.70;;;26.80;39.76;97157.88;5009127;28;20038;-42
2022/05/11 10:39:27;;;;;;;6.75;4.32;;;27.00;73.90;;;26.60;38.32;97141.06;4991100;28;20040;-43
2022/05/11 10:42:19;;;;;;;5.03;3.28;;;26.70;72.10;;;26.52;38.75;97143.72;5004060;28;20107;-43
2022/05/11 10:45:20;;;;;;;6.87;3.73;;;26.60;72.30;;;26.82;37.29;97140.47;5012264;28;20048;-42
2022/05/11 10:48:08;;;;;;;6.40;3.83;;;26.80;71.20;;;26.79;37.32;97113.75;5015201;28;20485;-44
2022/05/11 10:50:54;;;;;;;5.35;3.65;;;27.00;70.40;;;27.04;37.13;97128.19;5015084;28;20086;-42
2022/05/11 10:53:50;;;;;;;4.05;3.38;;;27.10;70.30;;;27.01;37.09;97106.84;5015716;28;20050;-41
2022/05/11 10:56:31;;;;;;;10.60;3.20;;;27.10;68.80;;;27.12;36.11;97119.22;5002892;28;20104;-41
2022/05/11 10:59:37;;;;;;;5.15;3.30;;;27.20;67.90;;;27.10;36.93;97121.25;5024070;28;20037;-42
2022/05/11 11:02:59;;;;;;;6.40;3.38;;;27.10;67.30;;;27.04;35.53;97122.78;5018701;28;20044;-41
2022/05/11 11:05:40;;;;;;;4.47;2.97;;;27.10;65.20;;;27.11;35.12;97122.94;4977345;28;20528;-41